Bareilly — A8KG7 — position and weather

sailwx.info

Track history (hours):
 
Tides and Currents Weather Stations Pressure Air Temp Water Temp Dewpoint Dewpoint Depression Visibility Wind Speed Wind Dir Waves Ship Positions

Bareilly

Last reported at 2018-Mar-31 04:46 UTC. Time now 2018-Apr-26 13:27 UTC.
Position N 01°18' E 103°21'.
Warning: this ship's position is 26 days out of date.

Length 243 m; draft 8.2 m.

Type: Ship. MMSI: 636013054.

Date/timePositionNaut miles runAvg speedWind from/ knotsBaromVisibWave heightAir tempDewpointWater temp
2018-Mar-31 04:46N 01°18' E 103°21'310.1
2018-Mar-31 04:30N 01°16' E 103°23'5 9.6
2018-Mar-31 03:59N 01°14' E 103°28'510.2
2018-Mar-31 03:30N 01°13' E 103°32'510.6
2018-Mar-31 03:00N 01°12' E 103°38'510.3
2018-Mar-31 02:30N 01°09' E 103°42'510.4
2018-Mar-31 01:59N 01°10' E 103°47'612.7
2018-Mar-31 01:30N 01°13' E 103°53'3 0.1
2018-Mar-30 06:29N 01°15' E 103°55'0 0.1
2018-Mar-30 05:59N 01°15' E 103°55'0 0.0
2018-Mar-30 05:30N 01°15' E 103°55'0 0.0
2018-Mar-30 05:01N 01°15' E 103°55'0 0.5
2018-Mar-30 04:29N 01°15' E 103°55'3 6.7
2018-Mar-30 04:01N 01°16' E 103°58'0 0.3
2018-Mar-30 03:30N 01°16' E 103°58'2 4.2
2018-Mar-30 02:58N 01°16' E 104°00'  
2018-Mar-22 15:35N 21°59' E 121°13'1 8.6
2018-Mar-22 15:27N 22°00' E 121°14'4 8.1
2018-Mar-22 15:00N 22°03' E 121°16'4 7.8
2018-Mar-22 14:30N 22°06' E 121°19'6 8.0
2018-Mar-22 13:47N 22°11' E 121°22'5 7.3
2018-Mar-22 13:08N 22°15' E 121°25'11 7.6
2018-Mar-22 11:39N 22°23' E 121°33'2 8.7
2018-Mar-22 11:25N 22°25' E 121°34'4 8.7
2018-Mar-22 11:00N 22°28' E 121°36'104 9.2
2018-Mar-21 23:44N 23°48' E 122°49'2 8.4
2018-Mar-21 23:30N 23°50' E 122°50'4 8.5
2018-Mar-21 23:00N 23°52' E 122°54'4 8.7
2018-Mar-21 22:30N 23°56' E 122°57'4 8.8
2018-Mar-21 22:00N 23°59' E 122°60'5 9.3
2018-Mar-21 21:30N 24°03' E 123°03'5 9.5
2018-Mar-21 21:00N 24°06' E 123°07'510.3
2018-Mar-21 20:30N 24°10' E 123°10'510.1
2018-Mar-21 20:00N 24°14' E 123°14'510.0
2018-Mar-21 19:30N 24°18' E 123°17'5 9.8
2018-Mar-21 19:00N 24°22' E 123°20'5 9.9
2018-Mar-21 18:30N 24°27' E 123°22'5 9.8
2018-Mar-21 18:00N 24°32' E 123°23'5 9.9
2018-Mar-21 17:30N 24°36' E 123°25'5 9.9
2018-Mar-21 17:00N 24°41' E 123°28'510.0
2018-Mar-21 16:30N 24°45' E 123°30'510.3
2018-Mar-21 16:00N 24°50' E 123°32'510.1
2018-Mar-21 15:30N 24°55' E 123°34'510.1
2018-Mar-21 15:00N 24°59' E 123°36'  
Track history (hours):
 
Tides and Currents Weather Stations Pressure Air Temp Water Temp Dewpoint Dewpoint Depression Visibility Wind Speed Wind Dir Waves Ship Positions

Bareilly

Last reported at 2018-Mar-31 04:46 UTC. Time now 2018-Apr-26 13:27 UTC.
Position N 01°18' E 103°21'.
Warning: this ship's position is 26 days out of date.

Length 243 m; draft 8.2 m.

Type: Ship. MMSI: 636013054.

Date/timePositionNaut miles runAvg speedWind from/ knotsBaromVisibWave heightAir tempDewpointWater temp
2018-Mar-31 04:46N 01°18' E 103°21'310.1
2018-Mar-31 04:30N 01°16' E 103°23'5 9.6
2018-Mar-31 03:59N 01°14' E 103°28'510.2
2018-Mar-31 03:30N 01°13' E 103°32'510.6
2018-Mar-31 03:00N 01°12' E 103°38'510.3
2018-Mar-31 02:30N 01°09' E 103°42'510.4
2018-Mar-31 01:59N 01°10' E 103°47'612.7
2018-Mar-31 01:30N 01°13' E 103°53'3 0.1
2018-Mar-30 06:29N 01°15' E 103°55'0 0.1
2018-Mar-30 05:59N 01°15' E 103°55'0 0.0
2018-Mar-30 05:30N 01°15' E 103°55'0 0.0
2018-Mar-30 05:01N 01°15' E 103°55'0 0.5
2018-Mar-30 04:29N 01°15' E 103°55'3 6.7
2018-Mar-30 04:01N 01°16' E 103°58'0 0.3
2018-Mar-30 03:30N 01°16' E 103°58'2 4.2
2018-Mar-30 02:58N 01°16' E 104°00'  
2018-Mar-22 15:35N 21°59' E 121°13'1 8.6
2018-Mar-22 15:27N 22°00' E 121°14'4 8.1
2018-Mar-22 15:00N 22°03' E 121°16'4 7.8
2018-Mar-22 14:30N 22°06' E 121°19'6 8.0
2018-Mar-22 13:47N 22°11' E 121°22'5 7.3
2018-Mar-22 13:08N 22°15' E 121°25'11 7.6
2018-Mar-22 11:39N 22°23' E 121°33'2 8.7
2018-Mar-22 11:25N 22°25' E 121°34'4 8.7
2018-Mar-22 11:00N 22°28' E 121°36'104 9.2
2018-Mar-21 23:44N 23°48' E 122°49'2 8.4
2018-Mar-21 23:30N 23°50' E 122°50'4 8.5
2018-Mar-21 23:00N 23°52' E 122°54'4 8.7
2018-Mar-21 22:30N 23°56' E 122°57'4 8.8
2018-Mar-21 22:00N 23°59' E 122°60'5 9.3
2018-Mar-21 21:30N 24°03' E 123°03'5 9.5
2018-Mar-21 21:00N 24°06' E 123°07'510.3
2018-Mar-21 20:30N 24°10' E 123°10'510.1
2018-Mar-21 20:00N 24°14' E 123°14'510.0
2018-Mar-21 19:30N 24°18' E 123°17'5 9.8
2018-Mar-21 19:00N 24°22' E 123°20'5 9.9
2018-Mar-21 18:30N 24°27' E 123°22'5 9.8
2018-Mar-21 18:00N 24°32' E 123°23'5 9.9
2018-Mar-21 17:30N 24°36' E 123°25'5 9.9
2018-Mar-21 17:00N 24°41' E 123°28'510.0
2018-Mar-21 16:30N 24°45' E 123°30'510.3
2018-Mar-21 16:00N 24°50' E 123°32'510.1
2018-Mar-21 15:30N 24°55' E 123°34'510.1
2018-Mar-21 15:00N 24°59' E 123°36'  

Dump ship's entire track history